createdAt,value
2023-03-06T00:00:54.166Z,0.00
2023-03-06T00:01:54.131Z,0.00
2023-03-06T00:02:54.125Z,0.00
2023-03-06T00:03:54.192Z,0.00
2023-03-06T00:04:54.112Z,0.00
2023-03-06T00:05:54.121Z,0.00
2023-03-06T00:06:54.081Z,0.00
2023-03-06T00:07:54.092Z,0.00
2023-03-06T00:08:54.124Z,0.00
2023-03-06T00:09:54.063Z,0.00
2023-03-06T00:10:54.057Z,0.00
2023-03-06T00:11:54.063Z,0.00
2023-03-06T00:12:54.049Z,0.00
2023-03-06T00:13:54.050Z,0.00
2023-03-06T00:14:54.086Z,0.00
2023-03-06T00:15:54.115Z,0.00
2023-03-06T00:16:54.033Z,0.00
2023-03-06T00:17:54.040Z,0.00
2023-03-06T00:18:54.014Z,0.00
2023-03-06T00:19:54.050Z,0.00
2023-03-06T00:20:54.997Z,0.00
2023-03-06T00:21:54.012Z,0.00
2023-03-06T00:22:54.040Z,0.00
2023-03-06T00:23:54.016Z,0.00
2023-03-06T00:24:54.018Z,0.00
2023-03-06T00:25:54.015Z,0.00
2023-03-06T00:26:54.002Z,0.00
2023-03-06T00:27:53.962Z,0.00
2023-03-06T00:28:53.987Z,0.00
2023-03-06T00:29:53.943Z,0.00
2023-03-06T00:30:53.957Z,0.00
2023-03-06T00:31:53.956Z,0.00
2023-03-06T00:32:53.950Z,0.00
2023-03-06T00:33:53.917Z,0.00
2023-03-06T00:34:53.946Z,0.00
2023-03-06T00:35:54.010Z,0.00
2023-03-06T00:36:53.908Z,0.00
2023-03-06T00:37:53.918Z,0.00
2023-03-06T00:38:53.915Z,0.00
2023-03-06T00:39:53.872Z,0.00
2023-03-06T00:40:53.905Z,0.00
2023-03-06T00:41:53.868Z,0.00
2023-03-06T00:42:53.886Z,0.00
2023-03-06T00:43:53.865Z,0.00
2023-03-06T00:44:53.847Z,0.00
2023-03-06T00:45:53.871Z,0.00
2023-03-06T00:46:53.853Z,0.00
2023-03-06T00:47:53.860Z,0.00
2023-03-06T00:48:53.869Z,0.00
2023-03-06T00:49:53.828Z,0.00
2023-03-06T00:50:53.816Z,0.00
2023-03-06T00:51:53.795Z,0.00
2023-03-06T00:52:53.870Z,0.00
2023-03-06T00:53:53.789Z,0.00
2023-03-06T00:54:53.793Z,0.00
2023-03-06T00:55:53.771Z,0.00
2023-03-06T00:56:53.749Z,0.00
2023-03-06T00:57:53.763Z,0.00
2023-03-06T00:58:53.752Z,0.00
2023-03-06T00:59:53.741Z,0.00
2023-03-06T01:00:53.781Z,0.00
2023-03-06T01:01:53.827Z,0.00
2023-03-06T01:02:53.785Z,0.00
2023-03-06T01:03:53.717Z,0.00
2023-03-06T01:04:53.684Z,0.00
2023-03-06T01:05:53.726Z,0.00
2023-03-06T01:06:53.693Z,0.00
2023-03-06T01:07:53.682Z,0.00
2023-03-06T01:08:53.715Z,0.00
2023-03-06T01:09:53.696Z,0.00
2023-03-06T01:10:53.706Z,0.00
2023-03-06T01:11:53.650Z,0.00
2023-03-06T01:12:53.648Z,0.00
2023-03-06T01:13:53.663Z,0.00
2023-03-06T01:14:53.637Z,0.00
2023-03-06T01:15:53.623Z,0.00
2023-03-06T01:16:53.634Z,0.00
2023-03-06T01:17:53.631Z,0.00
2023-03-06T01:18:53.652Z,0.00
2023-03-06T01:19:53.619Z,0.00
2023-03-06T01:20:53.600Z,0.00
2023-03-06T01:21:53.595Z,0.00
2023-03-06T01:22:53.630Z,0.00
2023-03-06T01:23:53.596Z,0.00
2023-03-06T01:24:53.610Z,0.00
2023-03-06T01:25:53.614Z,0.00
2023-03-06T01:26:53.577Z,0.00
2023-03-06T01:27:53.558Z,0.00
2023-03-06T01:28:53.567Z,0.00
2023-03-06T01:29:53.552Z,0.00
2023-03-06T01:30:53.585Z,0.00
2023-03-06T01:31:53.599Z,0.00
2023-03-06T01:32:53.523Z,0.00
2023-03-06T01:33:53.501Z,0.00
2023-03-06T01:34:53.520Z,0.00
2023-03-06T01:35:53.562Z,0.00
2023-03-06T01:36:53.508Z,0.00
2023-03-06T01:37:53.505Z,0.00
2023-03-06T01:38:53.504Z,0.00
2023-03-06T01:39:53.488Z,0.00
2023-03-06T01:40:53.504Z,0.00
2023-03-06T01:41:53.527Z,0.00
2023-03-06T01:42:53.475Z,0.00
2023-03-06T01:43:53.448Z,0.00
2023-03-06T01:44:53.465Z,0.00
2023-03-06T01:45:53.450Z,0.00
2023-03-06T01:46:53.460Z,0.00
2023-03-06T01:47:53.430Z,0.00
2023-03-06T01:48:53.436Z,0.00
2023-03-06T01:49:53.429Z,0.00
2023-03-06T01:50:53.412Z,0.00
2023-03-06T01:51:54.420Z,0.00
2023-03-06T01:52:53.391Z,0.00
2023-03-06T01:53:53.441Z,0.00
2023-03-06T01:54:53.440Z,0.00
2023-03-06T01:55:53.396Z,0.00
2023-03-06T01:56:53.427Z,0.00
2023-03-06T01:57:53.427Z,0.00
2023-03-06T01:58:53.365Z,0.00
2023-03-06T01:59:53.372Z,0.00
2023-03-06T02:00:53.391Z,0.00
2023-03-06T02:01:53.362Z,0.00
2023-03-06T02:02:53.376Z,0.00
2023-03-06T02:03:53.321Z,0.00
2023-03-06T02:04:53.366Z,0.00
2023-03-06T02:05:53.323Z,0.00
2023-03-06T02:06:53.340Z,0.00
2023-03-06T02:07:53.289Z,0.00
2023-03-06T02:08:53.296Z,0.00
2023-03-06T02:09:53.306Z,0.00
2023-03-06T02:10:53.282Z,0.00
2023-03-06T02:11:53.281Z,0.00
2023-03-06T02:12:53.300Z,0.00
2023-03-06T02:13:53.311Z,0.00
2023-03-06T02:14:53.297Z,0.00
2023-03-06T02:15:53.293Z,0.00
2023-03-06T02:16:53.394Z,0.00
2023-03-06T02:17:53.252Z,0.00
2023-03-06T02:18:53.290Z,0.00
2023-03-06T02:19:53.260Z,0.00
2023-03-06T02:20:53.275Z,0.00
2023-03-06T02:21:53.232Z,0.00
2023-03-06T02:22:53.252Z,0.00
2023-03-06T02:23:53.219Z,0.00
2023-03-06T02:24:54.214Z,0.00
2023-03-06T02:25:53.212Z,0.00
2023-03-06T02:26:53.195Z,0.00
2023-03-06T02:27:53.217Z,0.00
2023-03-06T02:28:53.186Z,0.00
2023-03-06T02:29:53.184Z,0.00
2023-03-06T02:30:53.334Z,0.00
2023-03-06T02:31:53.166Z,0.00
2023-03-06T02:32:53.147Z,0.00
2023-03-06T02:33:53.144Z,0.00
2023-03-06T02:34:53.174Z,0.00
2023-03-06T02:35:53.182Z,0.00
2023-03-06T02:36:53.152Z,0.00
2023-03-06T02:37:53.157Z,0.00
2023-03-06T02:38:53.140Z,0.00
2023-03-06T02:39:53.113Z,0.00
2023-03-06T02:40:53.097Z,0.00
2023-03-06T02:41:53.122Z,0.00
2023-03-06T02:42:53.127Z,0.00
2023-03-06T02:43:53.071Z,0.00
2023-03-06T02:44:53.091Z,0.00
2023-03-06T02:45:53.155Z,0.00
2023-03-06T02:46:53.091Z,0.00
2023-03-06T02:47:53.065Z,0.00
2023-03-06T02:48:53.033Z,0.00
2023-03-06T02:49:53.030Z,0.00
2023-03-06T02:50:53.036Z,0.00
2023-03-06T02:51:53.034Z,0.00
2023-03-06T02:52:53.050Z,0.00
2023-03-06T02:53:53.059Z,0.00
2023-03-06T02:54:53.010Z,0.00
2023-03-06T02:55:53.016Z,0.00
2023-03-06T02:56:53.024Z,0.00
2023-03-06T02:57:53.029Z,0.00
2023-03-06T02:58:53.020Z,0.00
2023-03-06T02:59:52.993Z,0.00
2023-03-06T03:00:53.001Z,0.00
2023-03-06T03:01:53.055Z,0.00
2023-03-06T03:02:52.976Z,0.00
2023-03-06T03:03:52.957Z,0.00
2023-03-06T03:04:53.079Z,0.00
2023-03-06T03:05:52.991Z,0.00
2023-03-06T03:06:52.966Z,0.00
2023-03-06T03:07:52.928Z,0.00
2023-03-06T03:08:52.915Z,0.00
2023-03-06T03:09:52.899Z,0.00
2023-03-06T03:10:52.956Z,0.00
2023-03-06T03:11:52.942Z,0.00
2023-03-06T03:12:52.880Z,0.00
2023-03-06T03:13:52.892Z,0.00
2023-03-06T03:14:52.878Z,0.00
2023-03-06T03:15:52.894Z,0.00
2023-03-06T03:16:52.896Z,0.00
2023-03-06T03:17:52.868Z,0.00
2023-03-06T03:18:52.852Z,0.00
2023-03-06T03:19:52.874Z,0.00
2023-03-06T03:20:52.838Z,0.00
2023-03-06T03:21:52.845Z,0.00
2023-03-06T03:22:52.836Z,0.00
2023-03-06T03:23:52.827Z,0.00
2023-03-06T03:24:52.863Z,0.00
2023-03-06T03:25:52.813Z,0.00
2023-03-06T03:26:52.821Z,0.00
2023-03-06T03:27:52.799Z,0.00
2023-03-06T03:28:52.780Z,0.00
2023-03-06T03:29:52.783Z,0.00
2023-03-06T03:30:52.800Z,0.00
2023-03-06T03:31:52.768Z,0.00
2023-03-06T03:32:52.801Z,0.00
2023-03-06T03:33:52.767Z,0.00
2023-03-06T03:34:52.750Z,0.00
2023-03-06T03:35:52.851Z,0.00
2023-03-06T03:36:52.753Z,0.00
2023-03-06T03:37:52.741Z,0.00
2023-03-06T03:38:52.790Z,0.00
2023-03-06T03:39:52.739Z,0.00
2023-03-06T03:40:52.803Z,0.00
2023-03-06T03:41:52.749Z,0.00
2023-03-06T03:42:52.704Z,0.00
2023-03-06T03:43:52.702Z,0.00
2023-03-06T03:44:52.738Z,0.00
2023-03-06T03:45:52.682Z,0.00
2023-03-06T03:46:52.728Z,0.00
2023-03-06T03:47:52.659Z,0.00
2023-03-06T03:48:52.649Z,0.00
2023-03-06T03:49:52.644Z,0.00
2023-03-06T03:50:52.722Z,0.00
2023-03-06T03:51:52.634Z,0.00
2023-03-06T03:52:52.672Z,0.00
2023-03-06T03:53:52.636Z,0.00
2023-03-06T03:54:52.639Z,0.00
2023-03-06T03:55:52.647Z,0.00
2023-03-06T03:56:52.625Z,0.00
2023-03-06T03:57:52.645Z,0.00
2023-03-06T03:58:52.621Z,0.00
2023-03-06T03:59:52.626Z,0.00
2023-03-06T04:00:52.640Z,0.00
2023-03-06T04:01:52.679Z,0.00
2023-03-06T04:02:52.574Z,0.00
2023-03-06T04:03:52.570Z,0.00
2023-03-06T04:04:52.628Z,0.00
2023-03-06T04:05:52.565Z,0.00
2023-03-06T04:06:52.573Z,0.00
2023-03-06T04:07:52.537Z,0.00
2023-03-06T04:08:52.538Z,0.00
2023-03-06T04:09:52.528Z,0.00
2023-03-06T04:10:52.527Z,0.00
2023-03-06T04:11:52.552Z,0.00
2023-03-06T04:12:52.528Z,0.00
2023-03-06T04:13:52.497Z,0.00
2023-03-06T04:14:52.488Z,0.00
2023-03-06T04:15:52.688Z,0.00
2023-03-06T04:16:52.501Z,0.00
2023-03-06T04:17:52.504Z,0.00
2023-03-06T04:18:52.472Z,0.00
2023-03-06T04:19:52.459Z,0.00
2023-03-06T04:20:52.528Z,0.00
2023-03-06T04:21:52.473Z,0.00
2023-03-06T04:22:52.480Z,0.00
2023-03-06T04:23:52.471Z,0.00
2023-03-06T04:24:52.426Z,0.00
2023-03-06T04:25:52.438Z,0.00
2023-03-06T04:26:52.414Z,0.00
2023-03-06T04:27:52.460Z,0.00
2023-03-06T04:28:52.414Z,0.00
2023-03-06T04:29:52.421Z,0.00
2023-03-06T04:30:52.418Z,0.00
2023-03-06T04:31:52.401Z,0.00
2023-03-06T04:32:52.408Z,0.00
2023-03-06T04:33:52.372Z,0.00
2023-03-06T04:34:52.380Z,0.00
2023-03-06T04:35:52.418Z,0.00
2023-03-06T04:36:52.366Z,0.00
2023-03-06T04:37:52.408Z,0.00
2023-03-06T04:38:52.386Z,0.00
2023-03-06T04:39:52.349Z,0.00
2023-03-06T04:40:52.368Z,0.00
2023-03-06T04:41:52.335Z,0.00
2023-03-06T04:42:52.350Z,0.00
2023-03-06T04:43:52.329Z,0.00
2023-03-06T04:44:52.323Z,0.00
2023-03-06T04:45:52.323Z,0.00
2023-03-06T04:46:52.309Z,0.00
2023-03-06T04:47:52.320Z,0.00
2023-03-06T04:48:52.317Z,0.00
2023-03-06T04:49:52.282Z,0.00
2023-03-06T04:50:52.305Z,0.00
2023-03-06T04:51:52.294Z,0.00
2023-03-06T04:52:52.338Z,0.00
2023-03-06T04:53:52.311Z,0.00
2023-03-06T04:54:52.271Z,0.00
2023-03-06T04:55:52.236Z,0.00
2023-03-06T04:56:52.252Z,0.00
2023-03-06T04:57:52.270Z,0.00
2023-03-06T04:58:52.273Z,0.00
2023-03-06T04:59:52.241Z,0.00
2023-03-06T05:00:52.290Z,0.00
2023-03-06T05:01:52.308Z,0.00
2023-03-06T05:02:52.204Z,0.00
2023-03-06T05:03:52.217Z,0.00
2023-03-06T05:04:52.197Z,0.00
2023-03-06T05:05:52.204Z,0.00
2023-03-06T05:06:52.175Z,0.00
2023-03-06T05:07:52.180Z,0.00
2023-03-06T05:08:52.198Z,0.00
2023-03-06T05:09:52.210Z,0.00
2023-03-06T05:10:52.149Z,0.00
2023-03-06T05:11:52.173Z,0.00
2023-03-06T05:12:52.122Z,0.00
2023-03-06T05:13:52.122Z,0.00
2023-03-06T05:14:53.144Z,0.00
2023-03-06T05:15:52.152Z,0.00
2023-03-06T05:16:52.101Z,0.00
2023-03-06T05:17:52.103Z,0.00
2023-03-06T05:18:52.120Z,0.00
2023-03-06T05:19:52.097Z,0.00
2023-03-06T05:20:52.132Z,0.00
2023-03-06T05:21:52.096Z,0.00
2023-03-06T05:22:52.112Z,0.00
2023-03-06T05:23:52.175Z,0.00
2023-03-06T05:24:52.040Z,0.00
2023-03-06T05:25:52.055Z,0.00
2023-03-06T05:26:52.068Z,0.00
2023-03-06T05:27:52.038Z,0.00
2023-03-06T05:28:52.067Z,0.00
2023-03-06T05:29:52.021Z,0.00
2023-03-06T05:30:53.041Z,0.00
2023-03-06T05:31:52.061Z,0.00
2023-03-06T05:32:52.071Z,0.00
2023-03-06T05:33:52.054Z,0.00
2023-03-06T05:34:52.046Z,0.00
2023-03-06T05:35:52.072Z,0.00
2023-03-06T05:36:51.992Z,0.00
2023-03-06T05:37:51.975Z,0.00
2023-03-06T05:38:51.978Z,0.00
2023-03-06T05:39:52.155Z,0.00
2023-03-06T05:40:52.951Z,0.00
2023-03-06T05:41:51.954Z,0.00
2023-03-06T05:42:51.957Z,0.00
2023-03-06T05:43:51.968Z,0.00
2023-03-06T05:44:51.985Z,0.00
2023-03-06T05:45:51.950Z,0.00
2023-03-06T05:46:51.928Z,0.00
2023-03-06T05:47:51.913Z,0.00
2023-03-06T05:48:51.982Z,0.00
2023-03-06T05:49:51.924Z,0.00
2023-03-06T05:50:51.917Z,0.00
2023-03-06T05:51:51.915Z,0.00
2023-03-06T05:52:51.903Z,0.00
2023-03-06T05:53:51.921Z,0.00
2023-03-06T05:54:51.869Z,0.00
2023-03-06T05:55:51.891Z,0.00
2023-03-06T05:56:51.900Z,0.00
2023-03-06T05:57:52.140Z,0.00
2023-03-06T05:58:51.861Z,0.00
2023-03-06T05:59:51.895Z,0.00
2023-03-06T06:00:51.854Z,0.00
2023-03-06T06:01:51.831Z,0.00
2023-03-06T06:02:51.839Z,0.00
2023-03-06T06:03:51.864Z,0.00
2023-03-06T06:04:51.869Z,0.00
2023-03-06T06:05:51.822Z,0.00
2023-03-06T06:06:51.823Z,0.00
2023-03-06T06:07:51.798Z,0.00
2023-03-06T06:08:51.776Z,0.00
2023-03-06T06:09:51.773Z,0.00
2023-03-06T06:10:53.480Z,0.00
2023-03-06T06:11:52.761Z,0.00
2023-03-06T06:12:51.774Z,0.00
2023-03-06T06:13:51.789Z,0.00
2023-03-06T06:14:51.811Z,0.00
2023-03-06T06:15:51.784Z,0.00
2023-03-06T06:16:51.767Z,0.00
2023-03-06T06:17:51.718Z,0.00
2023-03-06T06:18:51.752Z,0.00
2023-03-06T06:19:51.708Z,0.00
2023-03-06T06:20:51.702Z,0.00
2023-03-06T06:21:51.756Z,0.00
2023-03-06T06:22:51.684Z,5.62
2023-03-06T06:23:51.688Z,5.62
2023-03-06T06:24:51.668Z,5.62
2023-03-06T06:25:51.653Z,5.62
2023-03-06T06:26:51.652Z,5.62
2023-03-06T06:27:51.684Z,5.62
2023-03-06T06:28:51.655Z,5.62
2023-03-06T06:29:51.644Z,5.62
2023-03-06T06:30:51.681Z,5.62
2023-03-06T06:31:51.653Z,5.62
2023-03-06T06:32:51.669Z,5.62
2023-03-06T06:33:51.664Z,5.62
2023-03-06T06:34:51.653Z,5.62
2023-03-06T06:35:51.669Z,5.62
2023-03-06T06:36:53.314Z,5.62
2023-03-06T06:37:52.677Z,5.62
2023-03-06T06:38:51.698Z,5.62
2023-03-06T06:39:51.600Z,5.62
2023-03-06T06:41:26.767Z,5.62
2023-03-06T06:42:05.878Z,5.62
2023-03-06T06:42:53.614Z,5.62
2023-03-06T06:43:51.625Z,0.00
2023-03-06T06:44:51.559Z,0.00
2023-03-06T06:45:52.114Z,5.62
2023-03-06T06:47:53.805Z,5.62
2023-03-06T06:48:51.551Z,0.00
2023-03-06T06:49:51.609Z,0.00
2023-03-06T06:50:51.535Z,0.00
2023-03-06T06:51:51.517Z,5.62
2023-03-06T06:52:51.502Z,5.62
2023-03-06T06:53:51.569Z,5.62
2023-03-06T06:54:51.535Z,5.62
2023-03-06T06:55:51.473Z,0.00
2023-03-06T06:56:51.474Z,0.00
2023-03-06T06:57:51.465Z,0.00
2023-03-06T06:58:51.470Z,0.00
2023-03-06T06:59:53.831Z,0.00
2023-03-06T07:00:52.468Z,0.00
2023-03-06T07:01:51.559Z,0.00
2023-03-06T07:02:51.441Z,0.00
2023-03-06T07:03:51.468Z,0.00
2023-03-06T07:05:03.702Z,0.00
2023-03-06T07:05:53.415Z,0.00
2023-03-06T07:06:51.428Z,5.62
2023-03-06T07:07:51.444Z,5.62
2023-03-06T07:08:51.377Z,5.62
2023-03-06T07:09:51.399Z,0.00
2023-03-06T07:10:51.390Z,0.00
2023-03-06T07:11:51.407Z,5.62
2023-03-06T07:12:51.375Z,5.62
2023-03-06T07:13:51.389Z,5.62
2023-03-06T07:14:51.367Z,5.62
2023-03-06T07:15:51.372Z,5.62
2023-03-06T07:16:51.341Z,5.62
2023-03-06T07:17:51.343Z,5.62
2023-03-06T07:18:51.344Z,5.62
2023-03-06T07:19:51.341Z,5.62
2023-03-06T07:20:51.322Z,5.62
2023-03-06T07:21:51.348Z,5.62
2023-03-06T07:22:52.016Z,5.62
2023-03-06T07:23:52.318Z,5.62
2023-03-06T07:24:51.295Z,5.62
2023-03-06T07:25:51.415Z,5.62
2023-03-06T07:26:51.279Z,11.25
2023-03-06T07:27:53.969Z,11.25
2023-03-06T07:28:53.047Z,11.25
2023-03-06T07:29:52.256Z,11.25
2023-03-06T07:30:51.380Z,11.25
2023-03-06T07:31:51.262Z,5.62
2023-03-06T07:32:51.282Z,5.62
2023-03-06T07:33:51.249Z,5.62
2023-03-06T07:34:51.235Z,5.62
2023-03-06T07:35:51.248Z,5.62
2023-03-06T07:36:51.217Z,5.62
2023-03-06T07:37:51.236Z,5.62
2023-03-06T07:38:51.222Z,5.62
2023-03-06T07:39:51.203Z,5.62
2023-03-06T07:40:51.237Z,5.62
2023-03-06T07:41:51.228Z,5.62
2023-03-06T07:42:51.200Z,5.62
2023-03-06T07:43:51.288Z,5.62
2023-03-06T07:44:51.184Z,5.62
2023-03-06T07:45:51.180Z,5.62
2023-03-06T07:46:51.241Z,5.62
2023-03-06T07:47:51.156Z,5.62
2023-03-06T07:48:51.155Z,5.62
2023-03-06T07:49:51.199Z,5.62
2023-03-06T07:50:51.144Z,5.62
2023-03-06T07:51:51.339Z,5.62
2023-03-06T07:52:51.120Z,5.62
2023-03-06T07:53:51.155Z,5.62
2023-03-06T07:54:51.118Z,11.25
2023-03-06T07:55:51.131Z,11.25
2023-03-06T07:56:51.127Z,11.25
2023-03-06T07:57:51.132Z,11.25
2023-03-06T07:58:51.104Z,11.25
2023-03-06T07:59:51.059Z,16.88
2023-03-06T08:00:51.104Z,16.88
2023-03-06T08:01:51.070Z,22.50
2023-03-06T08:02:51.110Z,22.50
2023-03-06T08:03:51.114Z,28.12
2023-03-06T08:04:51.022Z,28.12
2023-03-06T08:05:51.129Z,33.75
2023-03-06T08:06:51.060Z,33.75
2023-03-06T08:07:51.047Z,50.62
2023-03-06T08:08:51.065Z,50.62
2023-03-06T08:09:51.012Z,73.12
2023-03-06T08:10:51.092Z,78.75
2023-03-06T08:11:51.030Z,78.75
2023-03-06T08:12:51.001Z,84.38
2023-03-06T08:13:50.971Z,95.62
2023-03-06T08:14:51.034Z,84.38
2023-03-06T08:15:51.007Z,73.12
2023-03-06T08:16:50.979Z,106.88
2023-03-06T08:17:51.026Z,106.88
2023-03-06T08:18:50.929Z,95.62
2023-03-06T08:19:51.014Z,106.88
2023-03-06T08:20:50.975Z,78.75
2023-03-06T08:21:51.007Z,84.38
2023-03-06T08:22:50.934Z,67.50
2023-03-06T08:23:50.959Z,61.88
2023-03-06T08:24:50.971Z,50.62
2023-03-06T08:25:50.922Z,45.00
2023-03-06T08:26:50.917Z,45.00
2023-03-06T08:27:50.896Z,39.38
2023-03-06T08:28:50.897Z,33.75
2023-03-06T08:29:50.912Z,33.75
2023-03-06T08:30:50.889Z,33.75
2023-03-06T08:31:50.946Z,28.12
2023-03-06T08:32:50.897Z,28.12
2023-03-06T08:33:50.893Z,28.12
2023-03-06T08:34:50.862Z,28.12
2023-03-06T08:35:50.939Z,28.12
2023-03-06T08:36:50.850Z,28.12
2023-03-06T08:37:50.948Z,28.12
2023-03-06T08:38:50.838Z,33.75
2023-03-06T08:39:50.823Z,33.75
2023-03-06T08:40:50.816Z,39.38
2023-03-06T08:41:50.801Z,39.38
2023-03-06T08:42:50.839Z,39.38
2023-03-06T08:43:50.855Z,39.38
2023-03-06T08:44:50.802Z,45.00
2023-03-06T08:45:50.817Z,45.00
2023-03-06T08:46:50.758Z,45.00
2023-03-06T08:47:50.801Z,50.62
2023-03-06T08:48:50.764Z,56.25
2023-03-06T08:49:50.733Z,73.12
2023-03-06T08:50:50.755Z,106.88
2023-03-06T08:51:50.752Z,106.88
2023-03-06T08:52:50.772Z,118.12
2023-03-06T08:53:50.710Z,129.38
2023-03-06T08:54:50.737Z,140.62
2023-03-06T08:55:50.711Z,146.25
2023-03-06T08:56:50.690Z,146.25
2023-03-06T08:57:50.696Z,146.25
2023-03-06T08:58:50.757Z,135.00
2023-03-06T08:59:50.762Z,101.25
2023-03-06T09:00:50.805Z,90.00
2023-03-06T09:01:50.693Z,101.25
2023-03-06T09:02:50.707Z,112.50
2023-03-06T09:03:50.656Z,90.00
2023-03-06T09:04:50.682Z,84.38
2023-03-06T09:05:50.641Z,84.38
2023-03-06T09:06:50.658Z,73.12
2023-03-06T09:07:50.634Z,73.12
2023-03-06T09:08:50.689Z,78.75
2023-03-06T09:09:50.737Z,78.75
2023-03-06T09:10:50.671Z,101.25
2023-03-06T09:11:50.676Z,95.62
2023-03-06T09:12:53.163Z,78.75
2023-03-06T09:13:51.607Z,61.88
2023-03-06T09:14:50.633Z,61.88
2023-03-06T09:15:50.598Z,67.50
2023-03-06T09:16:50.721Z,67.50
2023-03-06T09:17:50.592Z,67.50
2023-03-06T09:18:50.597Z,67.50
2023-03-06T09:19:50.586Z,67.50
2023-03-06T09:20:50.603Z,67.50
2023-03-06T09:21:50.575Z,67.50
2023-03-06T09:22:50.562Z,73.12
2023-03-06T09:23:50.533Z,78.75
2023-03-06T09:24:50.555Z,67.50
2023-03-06T09:25:50.536Z,84.38
2023-03-06T09:26:51.576Z,78.75
2023-03-06T09:28:02.088Z,95.62
2023-03-06T09:28:52.502Z,73.12
2023-03-06T09:29:50.590Z,78.75
2023-03-06T09:30:50.501Z,73.12
2023-03-06T09:31:50.526Z,67.50
2023-03-06T09:32:50.515Z,67.50
2023-03-06T09:33:50.483Z,61.88
2023-03-06T09:34:50.538Z,61.88
2023-03-06T09:35:50.534Z,61.88
2023-03-06T09:36:56.684Z,61.88
2023-03-06T09:37:52.457Z,61.88
2023-03-06T09:38:50.488Z,56.25
2023-03-06T09:39:50.463Z,56.25
2023-03-06T09:40:50.484Z,50.62
2023-03-06T09:41:50.480Z,50.62
2023-03-06T09:42:50.444Z,39.38
2023-03-06T09:43:50.434Z,39.38
2023-03-06T09:44:50.442Z,33.75
2023-03-06T09:45:50.478Z,33.75
2023-03-06T09:46:50.445Z,28.12
2023-03-06T09:47:50.419Z,28.12
2023-03-06T09:48:50.400Z,28.12
2023-03-06T09:49:50.386Z,28.12
2023-03-06T09:50:50.408Z,22.50
2023-03-06T09:51:50.378Z,22.50
2023-03-06T09:52:50.393Z,22.50
2023-03-06T09:53:50.374Z,28.12
2023-03-06T09:54:50.361Z,22.50
2023-03-06T09:55:50.378Z,28.12
2023-03-06T09:56:50.364Z,28.12
2023-03-06T09:57:51.280Z,33.75
2023-03-06T09:58:51.342Z,33.75
2023-03-06T09:59:50.351Z,39.38
2023-03-06T10:00:50.332Z,45.00
2023-03-06T10:01:50.397Z,45.00
2023-03-06T10:02:50.491Z,45.00
2023-03-06T10:03:50.358Z,50.62
2023-03-06T10:04:50.357Z,61.88
2023-03-06T10:05:50.341Z,73.12
2023-03-06T10:06:50.298Z,73.12
2023-03-06T10:07:50.303Z,84.38
2023-03-06T10:08:50.317Z,84.38
2023-03-06T10:09:50.299Z,78.75
2023-03-06T10:10:50.253Z,73.12
2023-03-06T10:11:51.248Z,67.50
2023-03-06T10:12:50.278Z,56.25
2023-03-06T10:13:50.278Z,50.62
2023-03-06T10:14:50.277Z,45.00
2023-03-06T10:15:50.309Z,39.38
2023-03-06T10:16:50.273Z,39.38
2023-03-06T10:17:50.261Z,33.75
2023-03-06T10:18:50.712Z,33.75
2023-03-06T10:19:50.227Z,33.75
2023-03-06T10:20:50.254Z,33.75
2023-03-06T10:21:50.267Z,39.38
2023-03-06T10:23:00.854Z,39.38
2023-03-06T10:23:52.246Z,45.00
2023-03-06T10:24:50.206Z,50.62
2023-03-06T10:25:50.196Z,50.62
2023-03-06T10:26:50.316Z,50.62
2023-03-06T10:27:50.209Z,50.62
2023-03-06T10:28:50.217Z,50.62
2023-03-06T10:30:01.553Z,50.62
2023-03-06T10:30:52.230Z,50.62
2023-03-06T10:31:50.169Z,50.62
2023-03-06T10:32:50.254Z,50.62
2023-03-06T10:33:50.211Z,56.25
2023-03-06T10:34:51.156Z,50.62
2023-03-06T10:35:50.207Z,50.62
2023-03-06T10:36:50.136Z,50.62
2023-03-06T10:37:50.193Z,50.62
2023-03-06T10:38:50.142Z,50.62
2023-03-06T10:39:50.101Z,50.62
2023-03-06T10:40:50.116Z,50.62
2023-03-06T10:41:50.117Z,50.62
2023-03-06T10:42:58.754Z,50.62
2023-03-06T10:43:52.138Z,50.62
2023-03-06T10:44:50.139Z,56.25
2023-03-06T10:45:50.109Z,56.25
2023-03-06T10:46:50.187Z,56.25
2023-03-06T10:47:50.087Z,56.25
2023-03-06T10:48:50.062Z,50.62
2023-03-06T10:49:50.111Z,45.00
2023-03-06T10:50:50.145Z,45.00
2023-03-06T10:51:50.054Z,45.00
2023-03-06T10:52:50.053Z,45.00
2023-03-06T10:53:50.049Z,45.00
2023-03-06T10:54:50.058Z,45.00
2023-03-06T10:55:50.041Z,45.00
2023-03-06T10:56:50.160Z,39.38
2023-03-06T10:57:50.060Z,39.38
2023-03-06T10:58:50.017Z,39.38
2023-03-06T10:59:50.004Z,39.38
2023-03-06T11:00:50.016Z,39.38
2023-03-06T11:01:50.109Z,39.38
2023-03-06T11:02:50.067Z,33.75
2023-03-06T11:03:50.015Z,33.75
2023-03-06T11:04:50.026Z,33.75
2023-03-06T11:05:50.003Z,28.12
2023-03-06T11:06:49.951Z,28.12
2023-03-06T11:07:50.007Z,28.12
2023-03-06T11:08:49.944Z,28.12
2023-03-06T11:09:49.946Z,28.12
2023-03-06T11:10:49.974Z,28.12
2023-03-06T11:11:49.947Z,28.12
2023-03-06T11:12:49.978Z,28.12
2023-03-06T11:13:50.058Z,33.75
2023-03-06T11:14:49.929Z,33.75
2023-03-06T11:15:49.933Z,39.38
2023-03-06T11:16:49.924Z,39.38
2023-03-06T11:17:50.939Z,45.00
2023-03-06T11:18:49.879Z,45.00
2023-03-06T11:19:49.892Z,50.62
2023-03-06T11:20:52.820Z,90.00
2023-03-06T11:21:50.906Z,95.62
2023-03-06T11:22:49.898Z,95.62
2023-03-06T11:23:49.889Z,286.88
2023-03-06T11:24:49.861Z,90.00
2023-03-06T11:25:49.873Z,73.12
2023-03-06T11:26:51.125Z,61.88
2023-03-06T11:27:49.868Z,61.88
2023-03-06T11:28:49.929Z,90.00
2023-03-06T11:29:49.844Z,50.62
2023-03-06T11:30:49.822Z,45.00
2023-03-06T11:31:49.814Z,45.00
2023-03-06T11:32:49.834Z,45.00
2023-03-06T11:33:49.833Z,45.00
2023-03-06T11:34:50.685Z,56.25
2023-03-06T11:35:50.870Z,45.00
2023-03-06T11:36:49.791Z,39.38
2023-03-06T11:37:49.791Z,39.38
2023-03-06T11:38:49.969Z,33.75
2023-03-06T11:39:49.800Z,33.75
2023-03-06T11:40:49.753Z,28.12
2023-03-06T11:41:49.790Z,28.12
2023-03-06T11:42:49.745Z,28.12
2023-03-06T11:43:49.750Z,28.12
2023-03-06T11:44:49.766Z,28.12
2023-03-06T11:45:49.745Z,28.12
2023-03-06T11:46:49.770Z,28.12
2023-03-06T11:47:49.729Z,28.12
2023-03-06T11:48:49.706Z,28.12
2023-03-06T11:49:49.741Z,28.12
2023-03-06T11:50:49.732Z,28.12
2023-03-06T11:51:50.700Z,28.12
2023-03-06T11:52:49.700Z,28.12
2023-03-06T11:53:49.773Z,28.12
2023-03-06T11:54:49.729Z,28.12
2023-03-06T11:55:49.738Z,28.12
2023-03-06T11:56:49.685Z,28.12
2023-03-06T11:57:49.646Z,22.50
2023-03-06T11:58:49.657Z,22.50
2023-03-06T11:59:49.665Z,22.50
2023-03-06T12:00:49.693Z,22.50
2023-03-06T12:01:49.709Z,22.50
2023-03-06T12:02:49.639Z,22.50
2023-03-06T12:03:49.657Z,22.50
2023-03-06T12:04:49.639Z,22.50
2023-03-06T12:05:49.702Z,22.50
2023-03-06T12:06:49.631Z,22.50
2023-03-06T12:07:49.625Z,22.50
2023-03-06T12:08:49.632Z,22.50
2023-03-06T12:09:49.625Z,16.88
2023-03-06T12:10:51.815Z,16.88
2023-03-06T12:11:50.620Z,16.88
2023-03-06T12:12:49.588Z,16.88
2023-03-06T12:13:49.572Z,16.88
2023-03-06T12:14:49.611Z,16.88
2023-03-06T12:15:49.551Z,16.88
2023-03-06T12:16:49.665Z,16.88
2023-03-06T12:17:49.588Z,16.88
2023-03-06T12:18:49.551Z,16.88
2023-03-06T12:19:49.545Z,16.88
2023-03-06T12:20:49.547Z,16.88
2023-03-06T12:21:49.548Z,22.50
2023-03-06T12:22:57.862Z,22.50
2023-03-06T12:23:51.542Z,22.50
2023-03-06T12:24:49.522Z,22.50
2023-03-06T12:25:49.500Z,22.50
2023-03-06T12:26:49.504Z,28.12
2023-03-06T12:27:49.527Z,33.75
2023-03-06T12:28:49.591Z,33.75
2023-03-06T12:29:49.624Z,39.38
2023-03-06T12:30:49.472Z,39.38
2023-03-06T12:31:49.494Z,45.00
2023-03-06T12:32:49.512Z,45.00
2023-03-06T12:33:49.479Z,45.00
2023-03-06T12:34:49.425Z,39.38
2023-03-06T12:35:49.439Z,33.75
2023-03-06T12:36:49.450Z,28.12
2023-03-06T12:37:49.419Z,28.12
2023-03-06T12:38:49.523Z,28.12
2023-03-06T12:39:49.445Z,28.12
2023-03-06T12:40:49.401Z,28.12
2023-03-06T12:41:49.391Z,28.12
2023-03-06T12:42:49.395Z,33.75
2023-03-06T12:43:49.437Z,33.75
2023-03-06T12:44:49.351Z,39.38
2023-03-06T12:45:49.490Z,45.00
2023-03-06T12:46:49.372Z,45.00
2023-03-06T12:47:49.356Z,45.00
2023-03-06T12:48:49.334Z,45.00
2023-03-06T12:49:49.465Z,45.00
2023-03-06T12:50:49.344Z,39.38
2023-03-06T12:51:49.308Z,39.38
2023-03-06T12:52:50.335Z,45.00
2023-03-06T12:53:49.338Z,45.00
2023-03-06T12:54:49.359Z,45.00
2023-03-06T12:55:49.377Z,39.38
2023-03-06T12:56:49.339Z,39.38
2023-03-06T12:57:49.297Z,39.38
2023-03-06T12:58:49.273Z,39.38
2023-03-06T12:59:49.324Z,39.38
2023-03-06T13:00:52.593Z,39.38
2023-03-06T13:01:51.429Z,33.75
2023-03-06T13:02:49.343Z,33.75
2023-03-06T13:03:49.246Z,33.75
2023-03-06T13:04:49.422Z,33.75
2023-03-06T13:05:49.343Z,39.38
2023-03-06T13:06:51.248Z,39.38
2023-03-06T13:07:50.292Z,39.38
2023-03-06T13:08:49.226Z,39.38